Time;durP1;ratioP1;P1;durP2;ratioP2;P2;SDS_P1;SDS_P2;PMS_P1;PMS_P2;Temp;Humidity;BMP_temperature;BMP_pressure;BME280_temperature;BME280_humidity;BME280_pressure;Samples;Min_cycle;Max_cycle;Signal;HPM_P1;HPM_P2
2024/03/22 00:00:43;;;;;;;5.57;0.80;;;;;;;;;;5122278;27;20047;-76
2024/03/22 00:03:11;;;;;;;4.60;0.50;;;;;;;;;;5122017;27;20055;-76
2024/03/22 00:05:40;;;;;;;3.33;0.60;;;;;;;;;;5121748;27;20061;-76
2024/03/22 00:08:09;;;;;;;3.17;0.43;;;;;;;;;;5105081;27;20043;-76
2024/03/22 00:10:38;;;;;;;4.20;0.90;;;;;;;;;;5122157;27;20421;-78
2024/03/22 00:13:08;;;;;;;4.50;0.90;;;;;;;;;;5121915;27;20039;-75
2024/03/22 00:15:38;;;;;;;6.72;0.80;;;;;;;;;;5122269;27;20539;-75
2024/03/22 00:18:07;;;;;;;7.53;0.80;;;;;;;;;;5121792;27;20520;-75
2024/03/22 00:20:36;;;;;;;4.10;0.68;;;;;;;;;;5121692;27;21002;-76
2024/03/22 00:23:05;;;;;;;7.43;0.70;;;;;;;;;;5121736;27;20047;-76
2024/03/22 00:25:35;;;;;;;3.50;0.70;;;;;;;;;;5122138;27;20521;-76
2024/03/22 00:28:04;;;;;;;2.88;0.60;;;;;;;;;;5122138;27;20381;-76
2024/03/22 00:30:32;;;;;;;5.80;0.70;;;;;;;;;;5120936;27;20062;-78
2024/03/22 00:33:00;;;;;;;4.18;0.80;;;;;;;;;;5121377;27;20046;-75
2024/03/22 00:35:28;;;;;;;8.32;0.95;;;;;;;;;;5121984;27;20051;-76
2024/03/22 00:37:57;;;;;;;5.80;1.20;;;;;;;;;;5104937;27;20043;-77
2024/03/22 00:40:26;;;;;;;14.02;1.13;;;;;;;;;;5122271;27;20042;-75
2024/03/22 00:42:55;;;;;;;6.22;0.77;;;;;;;;;;5122058;28;21085;-75
2024/03/22 00:45:23;;;;;;;7.45;0.90;;;;;;;;;;5120297;28;20055;-75
2024/03/22 00:47:52;;;;;;;3.40;0.80;;;;;;;;;;5122235;28;20047;-75
2024/03/22 00:50:20;;;;;;;9.25;0.73;;;;;;;;;;5121738;28;20046;-75
2024/03/22 00:52:52;;;;;;;7.63;0.88;;;;;;;;;;5104234;28;20047;-76
2024/03/22 00:55:20;;;;;;;5.00;0.85;;;;;;;;;;5121149;28;20054;-75
2024/03/22 00:57:48;;;;;;;8.90;0.95;;;;;;;;;;5121453;28;20043;-76
2024/03/22 01:00:17;;;;;;;3.55;0.80;;;;;;;;;;5121417;28;20035;-75
2024/03/22 01:02:46;;;;;;;4.63;0.52;;;;;;;;;;5121002;28;20055;-75
2024/03/22 01:05:15;;;;;;;6.20;0.90;;;;;;;;;;5121665;28;20055;-75
2024/03/22 01:07:44;;;;;;;8.02;1.02;;;;;;;;;;5120824;28;20043;-76
2024/03/22 01:10:13;;;;;;;4.97;1.27;;;;;;;;;;5121431;28;20047;-76
2024/03/22 01:12:41;;;;;;;3.42;0.77;;;;;;;;;;5121896;28;20043;-76
2024/03/22 01:15:11;;;;;;;8.23;1.00;;;;;;;;;;5120495;28;20051;-75
2024/03/22 01:17:40;;;;;;;6.82;0.90;;;;;;;;;;5120243;28;20054;-76
2024/03/22 01:20:09;;;;;;;3.70;0.57;;;;;;;;;;5104022;27;20051;-76
2024/03/22 01:22:37;;;;;;;3.25;0.52;;;;;;;;;;5124601;27;20054;-76
2024/03/22 01:25:06;;;;;;;7.32;0.93;;;;;;;;;;5125239;27;20047;-77
2024/03/22 01:27:34;;;;;;;9.65;1.20;;;;;;;;;;5125719;27;20050;-76
2024/03/22 01:30:03;;;;;;;5.97;0.90;;;;;;;;;;5125134;27;20575;-75
2024/03/22 01:32:32;;;;;;;6.82;1.42;;;;;;;;;;5126753;27;20077;-75
2024/03/22 01:35:00;;;;;;;9.23;1.15;;;;;;;;;;5125995;27;20047;-74
2024/03/22 01:37:28;;;;;;;7.45;0.82;;;;;;;;;;5108484;27;20042;-74
2024/03/22 01:39:57;;;;;;;8.93;0.95;;;;;;;;;;5125031;27;20481;-75
2024/03/22 01:42:25;;;;;;;5.97;1.25;;;;;;;;;;5124713;27;20058;-75
2024/03/22 01:44:54;;;;;;;5.43;1.38;;;;;;;;;;5124735;27;20047;-75
2024/03/22 01:47:23;;;;;;;10.63;1.25;;;;;;;;;;5124799;27;20043;-80
2024/03/22 01:49:56;;;;;;;10.38;0.80;;;;;;;;;;5108532;27;20047;-74
2024/03/22 01:52:28;;;;;;;9.98;1.10;;;;;;;;;;5124245;27;20047;-75
2024/03/22 01:54:57;;;;;;;3.35;0.82;;;;;;;;;;5124615;27;20043;-74
2024/03/22 01:57:25;;;;;;;7.72;0.90;;;;;;;;;;5124373;27;20058;-75
2024/03/22 01:59:56;;;;;;;8.13;0.95;;;;;;;;;;5124398;27;20516;-75
2024/03/22 02:02:24;;;;;;;8.23;0.75;;;;;;;;;;5124373;27;20051;-75
2024/03/22 02:04:53;;;;;;;9.45;1.52;;;;;;;;;;5124854;27;20039;-74
2024/03/22 02:07:21;;;;;;;7.88;0.90;;;;;;;;;;5124516;27;20046;-75
2024/03/22 02:09:49;;;;;;;7.55;1.23;;;;;;;;;;5124219;27;20035;-74
2024/03/22 02:12:18;;;;;;;6.82;0.95;;;;;;;;;;5125046;27;20050;-74
2024/03/22 02:14:46;;;;;;;8.13;1.00;;;;;;;;;;5124484;27;20417;-74
2024/03/22 02:17:14;;;;;;;8.10;0.90;;;;;;;;;;5124661;27;20417;-74
2024/03/22 02:19:43;;;;;;;8.93;1.17;;;;;;;;;;5123985;27;20054;-74
2024/03/22 02:22:11;;;;;;;5.85;1.13;;;;;;;;;;5124126;27;20047;-74
2024/03/22 02:24:40;;;;;;;9.95;1.50;;;;;;;;;;5123602;27;20039;-74
2024/03/22 02:27:08;;;;;;;12.40;1.05;;;;;;;;;;5123742;27;20149;-74
2024/03/22 02:29:37;;;;;;;7.90;0.95;;;;;;;;;;5123707;27;20055;-73
2024/03/22 02:32:06;;;;;;;8.90;0.80;;;;;;;;;;5123376;27;20047;-74
2024/03/22 02:34:34;;;;;;;8.65;0.88;;;;;;;;;;5123449;27;20054;-74
2024/03/22 02:37:02;;;;;;;2.13;0.60;;;;;;;;;;5124001;27;20039;-74
2024/03/22 02:39:31;;;;;;;12.45;1.00;;;;;;;;;;5123913;27;20039;-74
2024/03/22 02:42:00;;;;;;;12.82;1.20;;;;;;;;;;5123091;27;20035;-74
2024/03/22 02:44:30;;;;;;;9.73;1.00;;;;;;;;;;5123989;27;20051;-74
2024/03/22 02:46:58;;;;;;;3.15;0.55;;;;;;;;;;5123140;27;20509;-74
2024/03/22 02:49:26;;;;;;;6.30;0.93;;;;;;;;;;5123868;27;20051;-74
2024/03/22 02:51:54;;;;;;;5.40;0.82;;;;;;;;;;5123776;27;20046;-75
2024/03/22 02:54:23;;;;;;;7.40;0.90;;;;;;;;;;5123981;27;20050;-75
2024/03/22 02:56:52;;;;;;;8.50;0.90;;;;;;;;;;5123954;27;20047;-75
2024/03/22 02:59:20;;;;;;;12.55;1.27;;;;;;;;;;5123738;27;20490;-74
2024/03/22 03:01:48;;;;;;;10.55;1.35;;;;;;;;;;5123008;27;20051;-74
2024/03/22 03:04:17;;;;;;;6.25;1.13;;;;;;;;;;5123208;27;20409;-75
2024/03/22 03:06:45;;;;;;;9.25;0.95;;;;;;;;;;5122719;27;20047;-74
2024/03/22 03:09:14;;;;;;;6.10;0.85;;;;;;;;;;5122768;27;20047;-74
2024/03/22 03:11:42;;;;;;;8.25;1.05;;;;;;;;;;5123480;27;20047;-74
2024/03/22 03:14:12;;;;;;;7.32;0.80;;;;;;;;;;5105979;27;20042;-74
2024/03/22 03:16:40;;;;;;;7.53;1.52;;;;;;;;;;5122798;27;20043;-74
2024/03/22 03:19:08;;;;;;;9.38;1.00;;;;;;;;;;5122672;27;20050;-75
2024/03/22 03:21:36;;;;;;;7.75;0.98;;;;;;;;;;5122607;27;20054;-74
2024/03/22 03:24:06;;;;;;;7.22;1.30;;;;;;;;;;5123146;27;20058;-74
2024/03/22 03:26:35;;;;;;;11.05;1.48;;;;;;;;;;5122536;27;20524;-74
2024/03/22 03:29:03;;;;;;;8.93;1.05;;;;;;;;;;5122515;27;20046;-73
2024/03/22 03:31:31;;;;;;;13.95;0.88;;;;;;;;;;5123314;27;20393;-74
2024/03/22 03:34:00;;;;;;;9.98;0.93;;;;;;;;;;5122111;27;20066;-74
2024/03/22 03:36:28;;;;;;;4.95;0.85;;;;;;;;;;5122845;27;20039;-74
2024/03/22 03:38:57;;;;;;;5.18;0.80;;;;;;;;;;5122463;27;20069;-74
2024/03/22 03:41:26;;;;;;;11.50;1.15;;;;;;;;;;5122313;27;20039;-74
2024/03/22 03:43:56;;;;;;;3.65;0.70;;;;;;;;;;5104325;27;20058;-74
2024/03/22 03:46:24;;;;;;;7.05;0.77;;;;;;;;;;5122958;27;20031;-74
2024/03/22 03:48:52;;;;;;;5.20;0.90;;;;;;;;;;5122377;27;20063;-74
2024/03/22 03:51:20;;;;;;;4.07;1.08;;;;;;;;;;5121814;27;20116;-74
2024/03/22 03:53:49;;;;;;;10.52;0.75;;;;;;;;;;5122149;27;20050;-74
2024/03/22 03:56:18;;;;;;;1.15;0.55;;;;;;;;;;5121737;27;20493;-74
2024/03/22 03:58:47;;;;;;;2.80;0.50;;;;;;;;;;5122172;27;20055;-74
2024/03/22 04:01:17;;;;;;;7.65;0.77;;;;;;;;;;5122697;27;20410;-74
2024/03/22 04:03:46;;;;;;;8.07;0.63;;;;;;;;;;5121846;27;20043;-74
2024/03/22 04:06:15;;;;;;;5.28;1.10;;;;;;;;;;5122046;27;20043;-74
2024/03/22 04:08:43;;;;;;;9.65;0.90;;;;;;;;;;5122739;27;20051;-74
2024/03/22 04:11:12;;;;;;;8.98;0.93;;;;;;;;;;5121672;27;20771;-74
2024/03/22 04:13:41;;;;;;;5.78;0.70;;;;;;;;;;5122455;27;20387;-74
2024/03/22 04:16:10;;;;;;;14.23;1.17;;;;;;;;;;5104714;27;20051;-74
2024/03/22 04:18:38;;;;;;;2.67;0.47;;;;;;;;;;5122061;27;20528;-74
2024/03/22 04:21:06;;;;;;;5.57;0.70;;;;;;;;;;5121589;27;20498;-74
2024/03/22 04:23:35;;;;;;;4.38;0.50;;;;;;;;;;5121840;27;20054;-74
2024/03/22 04:26:04;;;;;;;2.00;0.57;;;;;;;;;;5121633;27;20440;-74
2024/03/22 04:28:32;;;;;;;13.85;0.90;;;;;;;;;;5121792;27;20058;-74
2024/03/22 04:31:02;;;;;;;4.80;0.70;;;;;;;;;;5087591;27;20055;-74
2024/03/22 04:33:32;;;;;;;8.45;0.90;;;;;;;;;;5121706;27;20047;-74
2024/03/22 04:36:01;;;;;;;8.23;0.52;;;;;;;;;;5121817;27;20055;-74
2024/03/22 04:38:31;;;;;;;12.65;0.85;;;;;;;;;;5121021;27;20789;-74
2024/03/22 04:40:59;;;;;;;;;;;;;;;;;;5122543;27;20042;-74
2024/03/22 04:43:28;;;;;;;7.82;0.70;;;;;;;;;;5104950;28;19923;-74
2024/03/22 04:45:56;;;;;;;13.60;0.90;;;;;;;;;;5121576;28;20035;-74
2024/03/22 04:48:25;;;;;;;5.97;0.82;;;;;;;;;;5121293;28;20502;-74
2024/03/22 04:50:53;;;;;;;7.68;0.80;;;;;;;;;;5121312;28;20539;-74
2024/03/22 04:53:22;;;;;;;17.35;1.25;;;;;;;;;;5104235;28;20055;-73
2024/03/22 04:55:51;;;;;;;16.40;1.27;;;;;;;;;;5125117;27;20618;-74
2024/03/22 04:58:21;;;;;;;4.68;0.82;;;;;;;;;;5125743;27;20062;-74
2024/03/22 05:00:49;;;;;;;;;;;;;;;;;;5109025;27;20047;-73
2024/03/22 05:03:18;;;;;;;5.60;0.98;;;;;;;;;;5125150;27;19923;-74
2024/03/22 05:05:47;;;;;;;6.25;0.63;;;;;;;;;;5125616;27;20043;-74
2024/03/22 05:08:15;;;;;;;5.60;1.30;;;;;;;;;;5125539;27;20039;-74
2024/03/22 05:10:44;;;;;;;2.75;0.57;;;;;;;;;;5125580;27;20519;-74
2024/03/22 05:13:14;;;;;;;4.72;1.00;;;;;;;;;;5125332;27;20409;-74
2024/03/22 05:15:42;;;;;;;9.88;1.05;;;;;;;;;;5124974;27;20420;-74
2024/03/22 05:18:10;;;;;;;6.55;0.80;;;;;;;;;;5125025;27;20050;-74
2024/03/22 05:20:38;;;;;;;7.70;1.27;;;;;;;;;;5125360;27;20047;-73
2024/03/22 05:23:07;;;;;;;7.65;1.10;;;;;;;;;;5107950;27;20055;-73
2024/03/22 05:25:36;;;;;;;10.82;1.17;;;;;;;;;;5125245;27;20038;-74
2024/03/22 05:28:04;;;;;;;12.75;1.40;;;;;;;;;;5124758;27;20481;-74
2024/03/22 05:30:32;;;;;;;5.38;1.02;;;;;;;;;;5124717;27;20043;-73
2024/03/22 05:33:01;;;;;;;9.85;1.08;;;;;;;;;;5125267;27;20039;-74
2024/03/22 05:35:29;;;;;;;8.55;1.17;;;;;;;;;;5124973;27;20031;-74
2024/03/22 05:37:58;;;;;;;5.65;0.93;;;;;;;;;;5107607;27;20047;-74
2024/03/22 05:40:26;;;;;;;3.55;1.27;;;;;;;;;;5125027;27;20039;-74
2024/03/22 05:42:56;;;;;;;6.55;0.95;;;;;;;;;;5108315;27;20497;-74
2024/03/22 05:45:24;;;;;;;10.38;1.10;;;;;;;;;;5124662;27;20395;-74
2024/03/22 05:47:52;;;;;;;10.82;0.88;;;;;;;;;;5124274;27;20055;-74
2024/03/22 05:50:20;;;;;;;10.13;1.10;;;;;;;;;;5124536;27;20039;-74
2024/03/22 05:52:49;;;;;;;9.30;0.98;;;;;;;;;;5125398;27;20042;-73
2024/03/22 05:55:18;;;;;;;7.30;1.05;;;;;;;;;;5124491;27;20039;-74
2024/03/22 05:57:47;;;;;;;7.20;0.75;;;;;;;;;;5124588;27;20047;-74
2024/03/22 06:00:15;;;;;;;7.53;0.90;;;;;;;;;;5124742;27;20046;-74
2024/03/22 06:02:44;;;;;;;15.25;1.58;;;;;;;;;;5124553;27;20043;-74
2024/03/22 06:05:13;;;;;;;6.63;1.00;;;;;;;;;;5124124;27;20046;-74
2024/03/22 06:07:43;;;;;;;6.15;1.63;;;;;;;;;;5123171;27;20047;-74
2024/03/22 06:10:13;;;;;;;5.57;1.08;;;;;;;;;;5124044;27;20043;-74
2024/03/22 06:12:41;;;;;;;6.90;1.00;;;;;;;;;;5124151;27;20043;-74
2024/03/22 06:15:10;;;;;;;9.32;1.38;;;;;;;;;;5124523;27;20043;-74
2024/03/22 06:17:38;;;;;;;11.30;1.30;;;;;;;;;;5106201;27;20051;-74
2024/03/22 06:20:09;;;;;;;3.33;0.93;;;;;;;;;;5123439;27;20596;-74
2024/03/22 06:22:38;;;;;;;9.52;1.00;;;;;;;;;;5122648;27;20073;-74
2024/03/22 06:25:07;;;;;;;11.13;1.30;;;;;;;;;;5124039;27;20050;-74
2024/03/22 06:27:36;;;;;;;12.10;1.50;;;;;;;;;;5124270;27;20046;-74
2024/03/22 06:30:05;;;;;;;4.47;1.02;;;;;;;;;;5124794;27;20047;-74
2024/03/22 06:32:34;;;;;;;7.43;1.27;;;;;;;;;;5124289;27;20043;-74
2024/03/22 06:35:05;;;;;;;9.88;1.25;;;;;;;;;;5123476;27;20043;-74
2024/03/22 06:37:34;;;;;;;11.52;1.33;;;;;;;;;;5106541;27;20053;-74
2024/03/22 06:40:02;;;;;;;11.07;1.42;;;;;;;;;;5124107;27;20509;-73
2024/03/22 06:42:31;;;;;;;11.73;1.90;;;;;;;;;;5124122;27;20043;-74
2024/03/22 06:45:00;;;;;;;11.77;1.20;;;;;;;;;;5123469;27;20494;-74
2024/03/22 06:47:29;;;;;;;16.73;1.48;;;;;;;;;;5123849;27;20521;-73
2024/03/22 06:49:57;;;;;;;8.73;1.33;;;;;;;;;;5123579;27;20057;-74
2024/03/22 06:52:26;;;;;;;7.47;1.30;;;;;;;;;;5123843;27;20051;-74
2024/03/22 06:54:55;;;;;;;5.10;1.48;;;;;;;;;;5123316;27;20053;-73
2024/03/22 06:57:23;;;;;;;13.15;1.88;;;;;;;;;;5123016;27;20058;-73
2024/03/22 06:59:51;;;;;;;7.78;1.08;;;;;;;;;;5123452;27;20050;-73
2024/03/22 07:02:20;;;;;;;6.60;1.27;;;;;;;;;;5122996;27;20082;-73
2024/03/22 07:04:48;;;;;;;5.22;1.23;;;;;;;;;;5123043;27;20054;-74
2024/03/22 07:07:17;;;;;;;8.43;1.73;;;;;;;;;;5122934;27;20058;-74
2024/03/22 07:09:47;;;;;;;9.15;1.45;;;;;;;;;;5122730;27;20050;-73
2024/03/22 07:12:16;;;;;;;7.80;1.70;;;;;;;;;;5123282;27;20042;-73
2024/03/22 07:14:44;;;;;;;9.80;1.80;;;;;;;;;;5122993;27;20391;-74
2024/03/22 07:17:13;;;;;;;12.10;1.75;;;;;;;;;;5122775;27;20493;-74
2024/03/22 07:19:41;;;;;;;8.77;1.30;;;;;;;;;;5123010;27;20409;-74
2024/03/22 07:22:10;;;;;;;12.45;2.05;;;;;;;;;;5123229;27;20417;-74
2024/03/22 07:24:39;;;;;;;10.02;1.60;;;;;;;;;;5123092;27;20039;-73
2024/03/22 07:27:07;;;;;;;;;;;;;;;;;;5122889;27;20543;-78
2024/03/22 07:29:35;;;;;;;7.63;1.85;;;;;;;;;;5122653;27;19924;-74
2024/03/22 07:32:04;;;;;;;8.57;1.42;;;;;;;;;;5122786;27;20627;-74
2024/03/22 07:34:32;;;;;;;6.38;1.27;;;;;;;;;;5122490;27;20043;-73
2024/03/22 07:37:01;;;;;;;17.70;1.80;;;;;;;;;;5123106;27;20047;-73
2024/03/22 07:39:30;;;;;;;7.88;1.20;;;;;;;;;;5122254;27;20039;-73
2024/03/22 07:41:59;;;;;;;7.07;1.40;;;;;;;;;;5105962;27;20436;-73
2024/03/22 07:44:28;;;;;;;5.57;1.45;;;;;;;;;;5122934;27;20047;-73
2024/03/22 07:46:56;;;;;;;;;;;;;;;;;;5122858;27;20058;-73
2024/03/22 07:49:24;;;;;;;14.20;1.75;;;;;;;;;;5122507;27;19923;-73
2024/03/22 07:51:53;;;;;;;6.35;1.23;;;;;;;;;;5122824;27;20116;-73
2024/03/22 07:54:21;;;;;;;5.50;1.48;;;;;;;;;;5122760;27;20053;-73
2024/03/22 07:56:50;;;;;;;9.07;1.35;;;;;;;;;;5122008;27;20054;-74
2024/03/22 07:59:18;;;;;;;10.30;1.38;;;;;;;;;;5121885;27;20414;-73
2024/03/22 08:01:47;;;;;;;5.10;1.95;;;;;;;;;;5121955;27;20054;-73
2024/03/22 08:04:15;;;;;;;8.20;1.15;;;;;;;;;;5121979;27;20043;-73
2024/03/22 08:06:44;;;;;;;8.32;1.50;;;;;;;;;;5122799;27;20608;-73
2024/03/22 08:09:13;;;;;;;9.73;1.30;;;;;;;;;;5122019;27;20618;-74
2024/03/22 08:11:42;;;;;;;4.60;1.30;;;;;;;;;;5122482;27;21072;-74
2024/03/22 08:14:10;;;;;;;8.55;1.30;;;;;;;;;;5121950;27;20743;-74
2024/03/22 08:16:38;;;;;;;10.73;1.13;;;;;;;;;;5121958;27;20456;-74
2024/03/22 08:19:06;;;;;;;6.15;1.40;;;;;;;;;;5104191;27;20054;-74
2024/03/22 08:21:36;;;;;;;5.90;1.08;;;;;;;;;;5121544;27;20047;-74
2024/03/22 08:24:05;;;;;;;5.80;1.20;;;;;;;;;;5121598;27;20043;-73
2024/03/22 08:26:33;;;;;;;6.13;1.20;;;;;;;;;;5121637;27;20047;-73
2024/03/22 08:29:01;;;;;;;9.23;1.60;;;;;;;;;;5121324;27;20039;-73
2024/03/22 08:31:30;;;;;;;7.80;1.70;;;;;;;;;;5121335;27;20565;-75
2024/03/22 08:33:58;;;;;;;14.60;3.65;;;;;;;;;;5120826;27;20055;-74
2024/03/22 08:36:26;;;;;;;8.27;3.58;;;;;;;;;;5121501;27;20043;-74
2024/03/22 08:38:55;;;;;;;8.50;3.78;;;;;;;;;;5122306;27;20048;-74
2024/03/22 08:41:24;;;;;;;12.30;3.67;;;;;;;;;;5104892;28;20058;-72
2024/03/22 08:43:52;;;;;;;12.90;2.92;;;;;;;;;;5121543;27;20047;-72
2024/03/22 08:46:23;;;;;;;6.90;1.95;;;;;;;;;;5122049;28;20066;-73
2024/03/22 08:48:51;;;;;;;7.15;1.95;;;;;;;;;;5121505;28;20070;-72
2024/03/22 08:51:22;;;;;;;5.60;1.52;;;;;;;;;;5121595;28;20577;-73
2024/03/22 08:53:51;;;;;;;9.63;2.00;;;;;;;;;;5121351;28;20409;-72
2024/03/22 08:56:19;;;;;;;11.60;1.50;;;;;;;;;;5121217;28;20039;-72
2024/03/22 08:58:47;;;;;;;11.40;1.27;;;;;;;;;;5121275;28;20047;-80
2024/03/22 09:01:16;;;;;;;11.85;1.58;;;;;;;;;;5121495;28;20051;-73
2024/03/22 09:03:46;;;;;;;5.25;1.33;;;;;;;;;;5121228;28;20043;-73
2024/03/22 09:06:14;;;;;;;;;;;;;;;;;;5122361;28;20059;-73
2024/03/22 09:08:42;;;;;;;5.72;1.02;;;;;;;;;;5121141;28;19923;-73
2024/03/22 09:11:12;;;;;;;6.75;1.23;;;;;;;;;;5121122;28;20043;-73
2024/03/22 09:13:40;;;;;;;9.68;0.93;;;;;;;;;;5121456;28;20050;-72
2024/03/22 09:16:09;;;;;;;6.63;1.20;;;;;;;;;;5121682;28;20043;-72
2024/03/22 09:18:38;;;;;;;8.10;1.40;;;;;;;;;;5121049;28;20421;-73
2024/03/22 09:21:08;;;;;;;10.68;1.23;;;;;;;;;;5120259;28;20528;-72
2024/03/22 09:23:37;;;;;;;12.77;1.42;;;;;;;;;;5104192;28;20439;-73
2024/03/22 09:26:06;;;;;;;9.60;1.52;;;;;;;;;;5103712;28;20059;-72
2024/03/22 09:28:35;;;;;;;5.20;1.10;;;;;;;;;;5121833;28;20036;-72
2024/03/22 09:31:05;;;;;;;12.25;1.15;;;;;;;;;;5121848;28;20046;-73
2024/03/22 09:33:37;;;;;;;10.70;1.05;;;;;;;;;;5121568;28;20054;-73
2024/03/22 09:36:05;;;;;;;7.18;1.30;;;;;;;;;;5120799;28;20046;-73
2024/03/22 09:38:33;;;;;;;7.80;1.10;;;;;;;;;;5120948;28;20047;-74
2024/03/22 09:41:02;;;;;;;10.10;1.10;;;;;;;;;;5121400;27;20046;-73
2024/03/22 09:43:34;;;;;;;7.47;1.13;;;;;;;;;;5107546;27;20425;-73
2024/03/22 09:46:03;;;;;;;7.03;0.90;;;;;;;;;;5125010;27;20043;-73
2024/03/22 09:48:33;;;;;;;5.47;0.80;;;;;;;;;;5124518;27;20081;-73
2024/03/22 09:51:01;;;;;;;4.97;1.20;;;;;;;;;;5124935;27;20047;-72
2024/03/22 09:53:32;;;;;;;16.30;1.45;;;;;;;;;;5124630;27;20043;-72
2024/03/22 09:56:01;;;;;;;6.22;0.90;;;;;;;;;;5124773;27;20047;-75
2024/03/22 09:58:30;;;;;;;4.82;0.90;;;;;;;;;;5125156;27;20035;-81
2024/03/22 10:01:01;;;;;;;13.88;1.63;;;;;;;;;;5124582;27;20043;-72
2024/03/22 10:03:29;;;;;;;8.48;1.38;;;;;;;;;;5124560;27;20047;-74
2024/03/22 10:05:58;;;;;;;10.45;1.00;;;;;;;;;;5124791;27;20631;-73
2024/03/22 10:08:26;;;;;;;5.20;1.40;;;;;;;;;;5107209;27;20058;-73
2024/03/22 10:10:55;;;;;;;11.95;1.50;;;;;;;;;;5124512;27;20046;-73
2024/03/22 10:13:23;;;;;;;11.63;1.70;;;;;;;;;;5123988;27;20046;-73
2024/03/22 10:15:52;;;;;;;13.82;1.73;;;;;;;;;;5124310;27;20532;-73
2024/03/22 10:18:21;;;;;;;7.38;1.15;;;;;;;;;;5124743;27;20493;-73
2024/03/22 10:21:11;;;;;;;12.48;1.42;;;;;;;;;;5123686;27;20050;-73
2024/03/22 10:23:40;;;;;;;8.25;1.10;;;;;;;;;;5124472;27;20043;-74
2024/03/22 10:26:10;;;;;;;7.13;1.23;;;;;;;;;;5123908;27;20047;-79
2024/03/22 10:28:47;;;;;;;10.50;1.70;;;;;;;;;;5117037;27;20066;-72
2024/03/22 10:31:17;;;;;;;7.43;1.10;;;;;;;;;;5103532;28;20052;-72
2024/03/22 10:33:47;;;;;;;12.38;1.88;;;;;;;;;;5103317;28;20043;-72
2024/03/22 10:36:35;;;;;;;12.80;1.58;;;;;;;;;;5103074;28;20054;-72
2024/03/22 10:39:18;;;;;;;13.43;1.73;;;;;;;;;;5060885;28;20053;-73
2024/03/22 10:42:06;;;;;;;6.32;1.73;;;;;;;;;;5043663;28;20063;-73
2024/03/22 10:44:53;;;;;;;7.15;1.45;;;;;;;;;;5061275;28;20045;-73
2024/03/22 10:47:51;;;;;;;9.10;1.63;;;;;;;;;;5056416;28;20083;-74
2024/03/22 10:50:35;;;;;;;11.10;1.92;;;;;;;;;;5002452;28;20050;-73
2024/03/22 10:53:21;;;;;;;7.20;1.65;;;;;;;;;;4985410;28;20590;-74
2024/03/22 10:56:18;;;;;;;9.05;1.80;;;;;;;;;;4942973;29;20078;-81
2024/03/22 10:59:21;;;;;;;11.57;1.63;;;;;;;;;;4885820;29;20061;-73
2024/03/22 11:01:50;;;;;;;8.23;1.73;;;;;;;;;;4870286;29;20068;-74
2024/03/22 11:04:23;;;;;;;13.68;2.75;;;;;;;;;;4870197;29;20489;-73
2024/03/22 11:06:52;;;;;;;9.65;2.25;;;;;;;;;;4915146;29;20059;-73
2024/03/22 11:09:27;;;;;;;11.75;2.00;;;;;;;;;;4926697;29;20651;-74
2024/03/22 11:11:58;;;;;;;17.23;2.20;;;;;;;;;;4926728;29;20059;-73
2024/03/22 11:14:27;;;;;;;5.25;1.70;;;;;;;;;;4926861;28;20063;-73
2024/03/22 11:16:55;;;;;;;10.13;1.90;;;;;;;;;;4927338;29;20065;-73
2024/03/22 11:19:24;;;;;;;11.93;1.92;;;;;;;;;;4926933;29;20567;-77
2024/03/22 11:21:54;;;;;;;8.10;2.00;;;;;;;;;;4926659;29;20764;-74
2024/03/22 11:24:22;;;;;;;11.93;2.15;;;;;;;;;;4926842;29;20066;-73
2024/03/22 11:26:50;;;;;;;7.70;1.65;;;;;;;;;;4926264;28;20149;-77
2024/03/22 11:29:18;;;;;;;11.65;1.92;;;;;;;;;;4946912;28;20053;-75
2024/03/22 11:31:48;;;;;;;7.05;1.70;;;;;;;;;;5043243;28;20053;-82
2024/03/22 11:34:17;;;;;;;7.72;1.75;;;;;;;;;;5043432;28;20499;-73
2024/03/22 11:36:46;;;;;;;8.85;1.80;;;;;;;;;;5044068;28;20056;-73
2024/03/22 11:39:14;;;;;;;5.15;1.73;;;;;;;;;;5043917;28;20044;-73
2024/03/22 11:41:42;;;;;;;12.07;1.65;;;;;;;;;;5089046;28;20055;-73
2024/03/22 11:44:11;;;;;;;12.77;1.27;;;;;;;;;;5085073;28;20051;-73
2024/03/22 11:46:39;;;;;;;10.32;1.70;;;;;;;;;;5102165;28;20039;-73
2024/03/22 11:49:08;;;;;;;14.13;1.38;;;;;;;;;;5101507;28;20062;-75
2024/03/22 11:51:39;;;;;;;8.00;1.38;;;;;;;;;;5085540;28;20054;-74
2024/03/22 11:54:08;;;;;;;7.80;1.30;;;;;;;;;;5101342;28;20047;-78
2024/03/22 11:56:36;;;;;;;9.13;1.63;;;;;;;;;;5102139;28;20039;-73
2024/03/22 11:59:04;;;;;;;7.47;1.75;;;;;;;;;;5085685;28;20052;-74
2024/03/22 12:01:34;;;;;;;5.50;1.45;;;;;;;;;;5101589;28;20517;-76
2024/03/22 12:04:02;;;;;;;8.70;1.90;;;;;;;;;;5100760;28;20052;-74
2024/03/22 12:06:31;;;;;;;6.97;1.80;;;;;;;;;;5085290;28;20066;-73
2024/03/22 12:08:59;;;;;;;7.43;1.50;;;;;;;;;;5102436;28;20524;-73
2024/03/22 12:11:28;;;;;;;7.40;1.40;;;;;;;;;;5101068;28;20064;-73
2024/03/22 12:13:56;;;;;;;11.05;1.65;;;;;;;;;;5101550;28;20044;-73
2024/03/22 12:16:25;;;;;;;7.80;1.65;;;;;;;;;;5102290;28;20039;-73
2024/03/22 12:18:54;;;;;;;15.35;2.65;;;;;;;;;;5101106;28;20044;-73
2024/03/22 12:21:24;;;;;;;5.72;1.55;;;;;;;;;;5101287;28;20039;-75
2024/03/22 12:23:52;;;;;;;5.47;1.02;;;;;;;;;;5101716;28;20062;-77
2024/03/22 12:26:22;;;;;;;11.70;1.52;;;;;;;;;;5101803;28;20051;-74
2024/03/22 12:28:50;;;;;;;5.82;1.30;;;;;;;;;;5101396;28;20429;-74
2024/03/22 12:31:19;;;;;;;7.85;1.58;;;;;;;;;;5101234;28;20209;-78
2024/03/22 12:33:47;;;;;;;9.23;1.48;;;;;;;;;;5102490;28;20044;-73
2024/03/22 12:36:16;;;;;;;3.17;1.20;;;;;;;;;;5086394;28;20047;-73
2024/03/22 12:38:44;;;;;;;6.60;1.40;;;;;;;;;;5102383;28;20520;-73
2024/03/22 12:41:13;;;;;;;7.07;1.20;;;;;;;;;;5101947;28;20054;-74
2024/03/22 12:43:42;;;;;;;13.13;3.83;;;;;;;;;;5101249;28;20390;-74
2024/03/22 12:46:10;;;;;;;15.35;2.30;;;;;;;;;;5100790;28;20498;-75
2024/03/22 12:48:39;;;;;;;7.32;1.23;;;;;;;;;;5101459;28;20059;-73
2024/03/22 12:51:09;;;;;;;8.32;1.20;;;;;;;;;;5101239;28;20050;-75
2024/03/22 12:53:37;;;;;;;8.85;1.67;;;;;;;;;;5100644;28;20498;-72
2024/03/22 12:56:06;;;;;;;9.40;1.30;;;;;;;;;;5083476;28;20528;-73
2024/03/22 12:58:34;;;;;;;14.02;1.70;;;;;;;;;;5084299;28;20502;-74
2024/03/22 13:01:03;;;;;;;6.07;0.88;;;;;;;;;;5101219;28;20043;-74
2024/03/22 13:03:32;;;;;;;8.18;1.30;;;;;;;;;;5101821;28;20047;-73
2024/03/22 13:06:01;;;;;;;4.35;1.27;;;;;;;;;;5101376;28;20053;-74
2024/03/22 13:08:29;;;;;;;7.57;1.35;;;;;;;;;;5101863;28;20055;-73
2024/03/22 13:10:58;;;;;;;5.00;1.10;;;;;;;;;;5068898;28;21031;-83
2024/03/22 13:13:26;;;;;;;6.85;1.38;;;;;;;;;;5101635;28;20043;-73
2024/03/22 13:15:58;;;;;;;8.88;1.10;;;;;;;;;;5103907;28;20047;-74
2024/03/22 13:18:27;;;;;;;8.63;1.38;;;;;;;;;;5105212;28;20040;-72
2024/03/22 13:20:56;;;;;;;9.60;1.20;;;;;;;;;;5104975;28;20493;-72
2024/03/22 13:23:24;;;;;;;7.28;0.90;;;;;;;;;;5104165;28;20058;-72
2024/03/22 13:25:52;;;;;;;11.20;1.35;;;;;;;;;;5104037;28;20051;-72
2024/03/22 13:28:22;;;;;;;5.45;1.13;;;;;;;;;;5104762;28;20048;-72
2024/03/22 13:30:59;;;;;;;4.88;1.25;;;;;;;;;;5104923;28;20050;-72
2024/03/22 13:33:29;;;;;;;5.47;1.15;;;;;;;;;;5104690;28;20035;-73
2024/03/22 13:35:57;;;;;;;4.32;1.20;;;;;;;;;;5103934;28;20043;-73
2024/03/22 13:38:28;;;;;;;8.05;0.88;;;;;;;;;;5104906;28;20039;-74
2024/03/22 13:40:58;;;;;;;6.70;1.00;;;;;;;;;;5104409;28;20043;-72
2024/03/22 13:43:29;;;;;;;6.18;0.85;;;;;;;;;;5104953;28;20050;-75
2024/03/22 13:45:58;;;;;;;4.13;1.13;;;;;;;;;;5104696;28;20050;-74
2024/03/22 13:48:26;;;;;;;8.93;1.20;;;;;;;;;;5104002;28;20040;-74
2024/03/22 13:50:56;;;;;;;4.20;1.10;;;;;;;;;;5104625;28;20494;-74
2024/03/22 13:53:24;;;;;;;7.07;0.88;;;;;;;;;;5104625;28;20040;-74
2024/03/22 13:55:55;;;;;;;4.25;0.85;;;;;;;;;;5103899;28;20577;-74
2024/03/22 13:58:24;;;;;;;4.22;1.23;;;;;;;;;;5103861;28;20043;-74
2024/03/22 14:00:52;;;;;;;5.65;0.90;;;;;;;;;;5104291;28;20050;-74
2024/03/22 14:03:21;;;;;;;4.78;0.93;;;;;;;;;;5103937;28;20055;-75
2024/03/22 14:05:49;;;;;;;4.97;0.85;;;;;;;;;;5103114;28;20075;-74
2024/03/22 14:08:17;;;;;;;10.43;0.93;;;;;;;;;;5104041;28;20051;-74
2024/03/22 14:10:46;;;;;;;8.07;0.93;;;;;;;;;;5104256;28;20055;-74
2024/03/22 14:13:15;;;;;;;8.18;1.08;;;;;;;;;;5103473;28;20048;-74
2024/03/22 14:15:44;;;;;;;4.50;0.82;;;;;;;;;;5103560;28;20367;-74
2024/03/22 14:18:13;;;;;;;9.63;1.33;;;;;;;;;;5103865;28;20046;-74
2024/03/22 14:20:41;;;;;;;9.07;1.13;;;;;;;;;;5103488;28;20054;-74
2024/03/22 14:23:10;;;;;;;5.57;1.05;;;;;;;;;;5103966;28;20043;-73
2024/03/22 14:25:39;;;;;;;5.78;1.00;;;;;;;;;;5103746;28;20051;-74
2024/03/22 14:28:08;;;;;;;6.32;1.17;;;;;;;;;;5102422;28;20042;-72
2024/03/22 14:30:38;;;;;;;7.20;1.42;;;;;;;;;;5103817;28;20043;-74
2024/03/22 14:33:07;;;;;;;5.35;0.90;;;;;;;;;;5103297;28;20044;-75
2024/03/22 14:35:35;;;;;;;7.70;0.98;;;;;;;;;;5103349;28;20047;-72
2024/03/22 14:38:04;;;;;;;5.55;0.70;;;;;;;;;;5104161;28;20043;-76
2024/03/22 14:40:36;;;;;;;7.40;0.65;;;;;;;;;;5086343;28;20051;-72
2024/03/22 14:43:05;;;;;;;6.45;1.20;;;;;;;;;;5103478;28;20405;-73
2024/03/22 14:45:34;;;;;;;4.10;1.02;;;;;;;;;;5102885;28;20050;-74
2024/03/22 14:48:05;;;;;;;6.40;1.02;;;;;;;;;;5086313;28;20059;-75
2024/03/22 14:50:39;;;;;;;3.17;0.68;;;;;;;;;;5102765;28;20054;-74
2024/03/22 14:53:11;;;;;;;4.05;0.88;;;;;;;;;;5102850;28;20046;-74